Cimarron, New Mexico
Current Conditions -  °F | °C
As of 5:15 PM on Monday 24 Nov 2014 (Local Time) from KAXX Reporting Station
Clear Clear  
Wind Chill: 15°   Ceiling: Unl
Heat Index: 15°   Visibility: 10mi
Dew Point:   Wind: 0mph
Humidity: 60%   Direction: NA
Pressure: 30.11"   Gusts: NA
Location:  36.51°N, 104.92°W
Report Text: KAXX 250015Z AUTO 00000KT 10SM CLR M09/M16 A3011 RMK AO2 T10951159
Loading
Personal Weather Stations






























Interactive Weather Map New forecast layout! Learn more

10-Day Weather Forecast

Advertisements
Track Severe Weather on mobile